AAL1383 KMSY-KMIA
Flight info
| Callsign | AAL1383 |
|---|---|
| Flight time | N/A |
| Altitude | 39000 |
| Route | CEW J2 DEFUN FROGZ4 |
| Aircraft | A20N/M-SDE2E3FGHIRWXY/LB1 |
Departure
| Time | 2026-05-06 23:21 |
|---|---|
| Airport | Louis Armstrong New Orleans International Airport (KMSY) |
Arrival
| Time | N/A |
|---|---|
| Airport | Miami International Airport (KMIA) |
| Time | Latitude | Longitude | Altitude | Speed | Heading |
|---|---|---|---|---|---|
| 2026-05-06 22:51 | 29.98673 | -90.25677 | 16 ft | 0 kts | 146° |
| 2026-05-06 23:06 | 29.98678 | -90.25681 | 13 ft | 2 kts | 145° |
| 2026-05-06 23:06 | 29.98692 | -90.25692 | 16 ft | 2 kts | 146° |
| 2026-05-06 23:06 | 29.98706 | -90.25702 | 15 ft | 2 kts | 146° |
| 2026-05-06 23:06 | 29.98720 | -90.25713 | 16 ft | 2 kts | 146° |
| 2026-05-06 23:07 | 29.98733 | -90.25723 | 13 ft | 2 kts | 147° |
| 2026-05-06 23:07 | 29.98747 | -90.25734 | 15 ft | 2 kts | 148° |
| 2026-05-06 23:07 | 29.98762 | -90.25744 | 13 ft | 2 kts | 151° |
| 2026-05-06 23:07 | 29.98776 | -90.25752 | 14 ft | 2 kts | 161° |
| 2026-05-06 23:08 | 29.98792 | -90.25757 | 15 ft | 2 kts | 174° |
| 2026-05-06 23:08 | 29.98809 | -90.25756 | 15 ft | 2 kts | 191° |
| 2026-05-06 23:08 | 29.98825 | -90.25752 | 14 ft | 2 kts | 195° |
| 2026-05-06 23:08 | 29.98841 | -90.25747 | 15 ft | 2 kts | 199° |
| 2026-05-06 23:09 | 29.98856 | -90.25740 | 17 ft | 2 kts | 201° |
| 2026-05-06 23:09 | 29.98872 | -90.25733 | 17 ft | 2 kts | 204° |
| 2026-05-06 23:09 | 29.98887 | -90.25725 | 16 ft | 2 kts | 207° |
| 2026-05-06 23:09 | 29.98901 | -90.25716 | 17 ft | 2 kts | 210° |
| 2026-05-06 23:10 | 29.98915 | -90.25706 | 17 ft | 2 kts | 216° |
| 2026-05-06 23:10 | 29.98928 | -90.25693 | 15 ft | 2 kts | 229° |
| 2026-05-06 23:10 | 29.98934 | -90.25684 | 15 ft | 1 kts | 250° |
| 2026-05-06 23:10 | 29.98935 | -90.25681 | 15 ft | 0 kts | 260° |
| 2026-05-06 23:11 | 29.98936 | -90.25702 | 15 ft | 6 kts | 283° |
| 2026-05-06 23:11 | 29.98954 | -90.25775 | 14 ft | 13 kts | 286° |
| 2026-05-06 23:12 | 29.98988 | -90.25911 | 12 ft | 21 kts | 285° |
| 2026-05-06 23:12 | 29.99035 | -90.26081 | 12 ft | 23 kts | 289° |
| 2026-05-06 23:12 | 29.99084 | -90.26268 | 11 ft | 26 kts | 284° |
| 2026-05-06 23:12 | 29.99134 | -90.26480 | 14 ft | 28 kts | 285° |
| 2026-05-06 23:13 | 29.99186 | -90.26713 | 11 ft | 31 kts | 286° |
| 2026-05-06 23:13 | 29.99244 | -90.26955 | 13 ft | 32 kts | 285° |
| 2026-05-06 23:13 | 29.99307 | -90.27208 | 13 ft | 34 kts | 285° |
| 2026-05-06 23:13 | 29.99376 | -90.27488 | 7 ft | 39 kts | 287° |
| 2026-05-06 23:14 | 29.99446 | -90.27796 | 9 ft | 40 kts | 286° |
| 2026-05-06 23:14 | 29.99518 | -90.28092 | 12 ft | 28 kts | 286° |
| 2026-05-06 23:14 | 29.99651 | -90.28159 | 13 ft | 19 kts | 29° |
| 2026-05-06 23:14 | 29.99656 | -90.28110 | 12 ft | 7 kts | 111° |
| 2026-05-06 23:15 | 29.99631 | -90.28030 | 13 ft | 15 kts | 106° |
| 2026-05-06 23:15 | 29.99548 | -90.27714 | 8 ft | 66 kts | 106° |
| 2026-05-06 23:15 | 29.99452 | -90.27316 | 9 ft | 50 kts | 105° |
| 2026-05-06 23:15 | 29.99366 | -90.27108 | 13 ft | 18 kts | 166° |
| 2026-05-06 23:16 | 29.99306 | -90.27190 | 14 ft | 20 kts | 271° |
| 2026-05-06 23:16 | 29.99352 | -90.27390 | 8 ft | 30 kts | 286° |
| 2026-05-06 23:16 | 29.99408 | -90.27633 | 10 ft | 32 kts | 284° |
| 2026-05-06 23:16 | 29.99465 | -90.27882 | 10 ft | 32 kts | 285° |
| 2026-05-06 23:17 | 29.99491 | -90.27977 | 11 ft | 0 kts | 287° |
| 2026-05-06 23:17 | 29.99491 | -90.27979 | 11 ft | 0 kts | 287° |
| 2026-05-06 23:18 | 29.99493 | -90.27984 | 13 ft | 3 kts | 287° |
| 2026-05-06 23:18 | 29.99502 | -90.28020 | 12 ft | 0 kts | 287° |
| 2026-05-06 23:18 | 29.99503 | -90.28024 | 12 ft | 0 kts | 287° |
| 2026-05-06 23:18 | 29.99504 | -90.28024 | 12 ft | 0 kts | 287° |
| 2026-05-06 23:19 | 29.99506 | -90.28034 | 12 ft | 0 kts | 287° |
| 2026-05-06 23:19 | 29.99511 | -90.28053 | 14 ft | 5 kts | 287° |
| 2026-05-06 23:19 | 29.99526 | -90.28108 | 13 ft | 9 kts | 287° |
| 2026-05-06 23:19 | 29.99561 | -90.28176 | 13 ft | 11 kts | 327° |
| 2026-05-06 23:20 | 29.99567 | -90.28179 | 13 ft | 0 kts | 337° |
| 2026-05-06 23:20 | 29.99576 | -90.28181 | 13 ft | 5 kts | 352° |
| 2026-05-06 23:20 | 29.99641 | -90.28163 | 13 ft | 14 kts | 33° |
| 2026-05-06 23:20 | 29.99641 | -90.28072 | 13 ft | 14 kts | 107° |
| 2026-05-06 23:21 | 29.99578 | -90.27818 | 10 ft | 66 kts | 106° |
| 2026-05-06 23:21 | 29.99394 | -90.27051 | 13 ft | 131 kts | 105° |
| 2026-05-06 23:21 | 29.99089 | -90.25851 | 99 ft | 174 kts | 111° |
| 2026-05-06 23:21 | 29.98718 | -90.24443 | 657 ft | 184 kts | 110° |
| 2026-05-06 23:22 | 29.98408 | -90.23031 | 1478 ft | 184 kts | 109° |
| 2026-05-06 23:22 | 29.98144 | -90.21561 | 2253 ft | 189 kts | 107° |
| 2026-05-06 23:22 | 29.98147 | -90.19949 | 2740 ft | 223 kts | 84° |
| 2026-05-06 23:22 | 29.98540 | -90.18103 | 3160 ft | 255 kts | 79° |
| 2026-05-06 23:23 | 29.99094 | -90.16030 | 3582 ft | 285 kts | 72° |
| 2026-05-06 23:23 | 29.99805 | -90.13785 | 4138 ft | 309 kts | 73° |
| 2026-05-06 23:23 | 30.00508 | -90.11397 | 5043 ft | 312 kts | 74° |
| 2026-05-06 23:23 | 30.01144 | -90.09039 | 6290 ft | 304 kts | 76° |
| 2026-05-06 23:24 | 30.01747 | -90.06696 | 7129 ft | 313 kts | 76° |
| 2026-05-06 23:24 | 30.02364 | -90.04227 | 7673 ft | 327 kts | 76° |
| 2026-05-06 23:24 | 30.02975 | -90.01714 | 8629 ft | 324 kts | 76° |
| 2026-05-06 23:24 | 30.03623 | -89.99209 | 9604 ft | 324 kts | 73° |
| 2026-05-06 23:25 | 30.04269 | -89.96734 | 10555 ft | 322 kts | 73° |
| 2026-05-06 23:25 | 30.04920 | -89.94196 | 11024 ft | 341 kts | 74° |
| 2026-05-06 23:25 | 30.05578 | -89.91474 | 11268 ft | 364 kts | 74° |
| 2026-05-06 23:25 | 30.06270 | -89.88593 | 11681 ft | 379 kts | 73° |
| 2026-05-06 23:26 | 30.06992 | -89.85641 | 12414 ft | 383 kts | 73° |
| 2026-05-06 23:26 | 30.07730 | -89.82669 | 13169 ft | 387 kts | 72° |
| 2026-05-06 23:26 | 30.08480 | -89.79667 | 13882 ft | 391 kts | 72° |
| 2026-05-06 23:26 | 30.09243 | -89.76629 | 14475 ft | 397 kts | 72° |
| 2026-05-06 23:27 | 30.10017 | -89.73546 | 15057 ft | 404 kts | 72° |
| 2026-05-06 23:27 | 30.10803 | -89.70412 | 15649 ft | 409 kts | 72° |
| 2026-05-06 23:27 | 30.11600 | -89.67234 | 16237 ft | 414 kts | 71° |
| 2026-05-06 23:27 | 30.12404 | -89.64020 | 16818 ft | 420 kts | 71° |
| 2026-05-06 23:28 | 30.13221 | -89.60754 | 17364 ft | 426 kts | 71° |
| 2026-05-06 23:28 | 30.14047 | -89.57445 | 17936 ft | 431 kts | 71° |
| 2026-05-06 23:28 | 30.14882 | -89.54097 | 18453 ft | 436 kts | 71° |
| 2026-05-06 23:28 | 30.15723 | -89.50717 | 19004 ft | 439 kts | 71° |
| 2026-05-06 23:29 | 30.16559 | -89.47356 | 19510 ft | 443 kts | 71° |
| 2026-05-06 23:29 | 30.17425 | -89.43871 | 20030 ft | 447 kts | 71° |
| 2026-05-06 23:29 | 30.18282 | -89.40417 | 20547 ft | 451 kts | 71° |
| 2026-05-06 23:29 | 30.19148 | -89.36922 | 21049 ft | 454 kts | 71° |